KWRL/WRL METAR and TAF weather

Enter ICAO airport designator
Station Type Date Time Source
KWRL METAR 2020/07/06 01:53 UTC NOAA

KWRL 060153Z AUTO 35008KT 10SM CLR 29/05 A2995 RMK AO2 SLP092 T02940050


Station Type Date Time Source
KWRL Decoded METAR 2020/07/06 01:53 UTC NOAA

WORLAND MUNICIPAL AIRPORT, WY, United States (KWRL) 43-58N 107-57W 1271M
Jul 05, 2020 - 09:53 PM EDT / 2020.07.06 0153 UTC
Wind: from the N (350 degrees) at 9 MPH (8 KT):0
Visibility: 10 mile(s):0
Sky conditions: clear
Temperature: 84.9 F (29.4 C)
Dew Point: 41.0 F (5.0 C)
Relative Humidity: 21%
Pressure (altimeter): 29.95 in. Hg (1014 hPa)
ob: KWRL 060153Z AUTO 35008KT 10SM CLR 29/05 A2995 RMK AO2 SLP092 T02940050
cycle: 2

Station Type Date Time Source
KWRL TAF 2020/07/05 18:27 UTC NOAA

TAF KWRL 051724Z 0518/0618 VRB04KT P6SM FEW150
FM052000 35010G18KT P6SM VCTS SCT080CB BKN150
FM060300 35005KT P6SM SCT150
FM060900 VRB04KT P6SM SKC

Example: see airport list